sensor_id;sensor_type;location;lat;lon;timestamp;P1;durP1;ratioP1;P2;durP2;ratioP2
61572;SDS011;47465;43.094;12.434;2022-09-13T00:00:18;4.90;;;2.25;;
61572;SDS011;47465;43.094;12.434;2022-09-13T00:02:44;5.38;;;2.55;;
61572;SDS011;47465;43.094;12.434;2022-09-13T00:05:10;4.03;;;2.50;;
61572;SDS011;47465;43.094;12.434;2022-09-13T00:07:37;5.22;;;2.30;;
61572;SDS011;47465;43.094;12.434;2022-09-13T00:10:03;4.60;;;3.08;;
61572;SDS011;47465;43.094;12.434;2022-09-13T00:12:29;4.32;;;2.30;;
61572;SDS011;47465;43.094;12.434;2022-09-13T00:14:55;6.75;;;2.38;;
61572;SDS011;47465;43.094;12.434;2022-09-13T00:17:21;5.07;;;2.67;;
61572;SDS011;47465;43.094;12.434;2022-09-13T00:19:47;5.53;;;2.30;;
61572;SDS011;47465;43.094;12.434;2022-09-13T00:22:13;4.55;;;2.20;;
61572;SDS011;47465;43.094;12.434;2022-09-13T00:24:40;5.38;;;2.50;;
61572;SDS011;47465;43.094;12.434;2022-09-13T00:27:06;4.53;;;2.10;;
61572;SDS011;47465;43.094;12.434;2022-09-13T00:29:32;3.78;;;2.17;;
61572;SDS011;47465;43.094;12.434;2022-09-13T00:31:58;3.97;;;2.20;;
61572;SDS011;47465;43.094;12.434;2022-09-13T00:34:24;4.85;;;2.30;;
61572;SDS011;47465;43.094;12.434;2022-09-13T00:36:50;4.95;;;2.28;;
61572;SDS011;47465;43.094;12.434;2022-09-13T00:39:16;6.25;;;2.72;;
61572;SDS011;47465;43.094;12.434;2022-09-13T00:41:43;4.80;;;2.20;;
61572;SDS011;47465;43.094;12.434;2022-09-13T00:47:09;4.45;;;2.28;;
61572;SDS011;47465;43.094;12.434;2022-09-13T00:49:37;4.05;;;2.53;;
61572;SDS011;47465;43.094;12.434;2022-09-13T00:52:05;5.97;;;2.45;;
61572;SDS011;47465;43.094;12.434;2022-09-13T00:54:35;3.65;;;2.17;;
61572;SDS011;47465;43.094;12.434;2022-09-13T00:57:08;5.88;;;2.33;;
61572;SDS011;47465;43.094;12.434;2022-09-13T00:59:36;6.63;;;2.40;;
61572;SDS011;47465;43.094;12.434;2022-09-13T01:02:07;7.75;;;2.35;;
61572;SDS011;47465;43.094;12.434;2022-09-13T01:04:33;7.57;;;2.72;;
61572;SDS011;47465;43.094;12.434;2022-09-13T01:07:02;6.90;;;2.30;;
61572;SDS011;47465;43.094;12.434;2022-09-13T01:09:31;5.22;;;2.50;;
61572;SDS011;47465;43.094;12.434;2022-09-13T01:12:01;3.92;;;2.55;;
61572;SDS011;47465;43.094;12.434;2022-09-13T01:14:33;8.75;;;2.80;;
61572;SDS011;47465;43.094;12.434;2022-09-13T01:19:27;5.40;;;2.63;;
61572;SDS011;47465;43.094;12.434;2022-09-13T01:25:13;5.53;;;2.60;;
61572;SDS011;47465;43.094;12.434;2022-09-13T01:28:03;5.82;;;2.60;;
61572;SDS011;47465;43.094;12.434;2022-09-13T01:30:53;5.32;;;2.40;;
61572;SDS011;47465;43.094;12.434;2022-09-13T01:33:35;5.90;;;2.55;;
61572;SDS011;47465;43.094;12.434;2022-09-13T01:36:20;6.75;;;2.78;;
61572;SDS011;47465;43.094;12.434;2022-09-13T01:39:00;6.28;;;2.88;;
61572;SDS011;47465;43.094;12.434;2022-09-13T01:41:33;6.78;;;2.80;;
61572;SDS011;47465;43.094;12.434;2022-09-13T01:44:13;7.60;;;2.97;;
61572;SDS011;47465;43.094;12.434;2022-09-13T01:46:56;6.13;;;2.63;;
61572;SDS011;47465;43.094;12.434;2022-09-13T01:49:32;6.50;;;2.60;;
61572;SDS011;47465;43.094;12.434;2022-09-13T01:52:13;4.47;;;2.55;;
61572;SDS011;47465;43.094;12.434;2022-09-13T01:54:47;5.15;;;2.60;;
61572;SDS011;47465;43.094;12.434;2022-09-13T01:57:20;5.18;;;2.45;;
61572;SDS011;47465;43.094;12.434;2022-09-13T01:59:55;8.45;;;2.95;;
61572;SDS011;47465;43.094;12.434;2022-09-13T02:02:28;5.60;;;2.83;;
61572;SDS011;47465;43.094;12.434;2022-09-13T02:04:59;7.75;;;2.80;;
61572;SDS011;47465;43.094;12.434;2022-09-13T02:07:30;4.82;;;2.65;;
61572;SDS011;47465;43.094;12.434;2022-09-13T02:10:01;6.38;;;2.78;;
61572;SDS011;47465;43.094;12.434;2022-09-13T02:12:31;5.32;;;2.60;;
61572;SDS011;47465;43.094;12.434;2022-09-13T02:15:03;5.40;;;3.00;;
61572;SDS011;47465;43.094;12.434;2022-09-13T02:17:37;5.68;;;2.92;;
61572;SDS011;47465;43.094;12.434;2022-09-13T02:20:07;6.38;;;2.80;;
61572;SDS011;47465;43.094;12.434;2022-09-13T02:22:41;4.93;;;2.72;;
61572;SDS011;47465;43.094;12.434;2022-09-13T02:25:12;6.40;;;2.80;;
61572;SDS011;47465;43.094;12.434;2022-09-13T02:27:40;5.93;;;3.10;;
61572;SDS011;47465;43.094;12.434;2022-09-13T02:30:12;7.60;;;3.30;;
61572;SDS011;47465;43.094;12.434;2022-09-13T02:32:41;5.43;;;2.90;;
61572;SDS011;47465;43.094;12.434;2022-09-13T02:35:15;4.68;;;2.80;;
61572;SDS011;47465;43.094;12.434;2022-09-13T02:37:46;6.60;;;3.50;;
61572;SDS011;47465;43.094;12.434;2022-09-13T02:40:19;4.88;;;2.60;;
61572;SDS011;47465;43.094;12.434;2022-09-13T02:42:51;6.30;;;3.00;;
61572;SDS011;47465;43.094;12.434;2022-09-13T02:45:20;7.22;;;3.00;;
61572;SDS011;47465;43.094;12.434;2022-09-13T02:47:57;6.85;;;3.08;;
61572;SDS011;47465;43.094;12.434;2022-09-13T02:50:30;8.07;;;3.00;;
61572;SDS011;47465;43.094;12.434;2022-09-13T02:53:03;5.63;;;3.10;;
61572;SDS011;47465;43.094;12.434;2022-09-13T02:55:38;6.15;;;2.95;;
61572;SDS011;47465;43.094;12.434;2022-09-13T02:58:18;8.40;;;3.13;;
61572;SDS011;47465;43.094;12.434;2022-09-13T03:00:47;7.53;;;3.03;;
61572;SDS011;47465;43.094;12.434;2022-09-13T03:03:15;6.72;;;2.97;;
61572;SDS011;47465;43.094;12.434;2022-09-13T03:05:43;5.28;;;3.13;;
61572;SDS011;47465;43.094;12.434;2022-09-13T03:08:09;9.00;;;3.42;;
61572;SDS011;47465;43.094;12.434;2022-09-13T03:10:42;5.75;;;3.30;;
61572;SDS011;47465;43.094;12.434;2022-09-13T03:16:19;6.75;;;3.13;;
61572;SDS011;47465;43.094;12.434;2022-09-13T03:19:00;7.18;;;3.00;;
61572;SDS011;47465;43.094;12.434;2022-09-13T03:21:43;8.00;;;3.20;;
61572;SDS011;47465;43.094;12.434;2022-09-13T03:24:21;6.20;;;2.97;;
61572;SDS011;47465;43.094;12.434;2022-09-13T03:26:56;5.07;;;3.00;;
61572;SDS011;47465;43.094;12.434;2022-09-13T03:29:31;6.03;;;3.35;;
61572;SDS011;47465;43.094;12.434;2022-09-13T03:32:05;6.55;;;3.15;;
61572;SDS011;47465;43.094;12.434;2022-09-13T03:34:44;5.70;;;2.90;;
61572;SDS011;47465;43.094;12.434;2022-09-13T03:37:17;6.65;;;3.13;;
61572;SDS011;47465;43.094;12.434;2022-09-13T03:39:51;7.15;;;2.88;;
61572;SDS011;47465;43.094;12.434;2022-09-13T03:42:22;6.10;;;3.25;;
61572;SDS011;47465;43.094;12.434;2022-09-13T03:44:54;5.88;;;3.13;;
61572;SDS011;47465;43.094;12.434;2022-09-13T03:47:22;8.57;;;3.90;;
61572;SDS011;47465;43.094;12.434;2022-09-13T03:52:19;6.90;;;3.17;;
61572;SDS011;47465;43.094;12.434;2022-09-13T03:54:45;8.73;;;3.47;;
61572;SDS011;47465;43.094;12.434;2022-09-13T03:57:11;14.55;;;3.33;;
61572;SDS011;47465;43.094;12.434;2022-09-13T03:59:40;7.85;;;3.53;;
61572;SDS011;47465;43.094;12.434;2022-09-13T04:02:13;6.00;;;3.50;;
61572;SDS011;47465;43.094;12.434;2022-09-13T04:04:40;6.72;;;3.22;;
61572;SDS011;47465;43.094;12.434;2022-09-13T04:07:09;5.82;;;3.30;;
61572;SDS011;47465;43.094;12.434;2022-09-13T04:09:36;6.00;;;3.25;;
61572;SDS011;47465;43.094;12.434;2022-09-13T04:12:03;6.07;;;3.55;;
61572;SDS011;47465;43.094;12.434;2022-09-13T04:14:29;7.43;;;3.90;;
61572;SDS011;47465;43.094;12.434;2022-09-13T04:16:55;6.28;;;3.20;;
61572;SDS011;47465;43.094;12.434;2022-09-13T04:19:22;6.28;;;3.53;;
61572;SDS011;47465;43.094;12.434;2022-09-13T04:21:49;6.18;;;3.17;;
61572;SDS011;47465;43.094;12.434;2022-09-13T04:24:17;5.05;;;3.30;;
61572;SDS011;47465;43.094;12.434;2022-09-13T04:26:47;7.85;;;3.35;;
61572;SDS011;47465;43.094;12.434;2022-09-13T04:29:14;5.90;;;3.33;;
61572;SDS011;47465;43.094;12.434;2022-09-13T04:31:40;6.32;;;3.28;;
61572;SDS011;47465;43.094;12.434;2022-09-13T04:34:06;6.78;;;3.47;;
61572;SDS011;47465;43.094;12.434;2022-09-13T04:36:32;7.72;;;3.50;;
61572;SDS011;47465;43.094;12.434;2022-09-13T04:38:58;4.78;;;2.80;;
61572;SDS011;47465;43.094;12.434;2022-09-13T04:41:26;8.20;;;3.10;;
61572;SDS011;47465;43.094;12.434;2022-09-13T04:43:52;8.55;;;3.55;;
61572;SDS011;47465;43.094;12.434;2022-09-13T04:46:18;4.70;;;2.95;;
61572;SDS011;47465;43.094;12.434;2022-09-13T04:48:47;5.28;;;3.08;;
61572;SDS011;47465;43.094;12.434;2022-09-13T04:51:13;6.93;;;3.00;;
61572;SDS011;47465;43.094;12.434;2022-09-13T04:53:39;5.22;;;3.00;;
61572;SDS011;47465;43.094;12.434;2022-09-13T04:56:05;6.25;;;3.10;;
61572;SDS011;47465;43.094;12.434;2022-09-13T04:58:35;6.20;;;3.03;;
61572;SDS011;47465;43.094;12.434;2022-09-13T05:01:01;9.05;;;3.30;;
61572;SDS011;47465;43.094;12.434;2022-09-13T05:03:28;6.68;;;3.30;;
61572;SDS011;47465;43.094;12.434;2022-09-13T05:05:54;6.63;;;3.10;;
61572;SDS011;47465;43.094;12.434;2022-09-13T05:08:20;6.95;;;3.15;;
61572;SDS011;47465;43.094;12.434;2022-09-13T05:10:46;4.93;;;2.85;;
61572;SDS011;47465;43.094;12.434;2022-09-13T05:13:12;4.65;;;3.00;;
61572;SDS011;47465;43.094;12.434;2022-09-13T05:15:39;6.97;;;3.25;;
61572;SDS011;47465;43.094;12.434;2022-09-13T05:18:05;8.40;;;3.20;;
61572;SDS011;47465;43.094;12.434;2022-09-13T05:20:31;5.80;;;3.25;;
61572;SDS011;47465;43.094;12.434;2022-09-13T05:22:57;5.07;;;3.03;;
61572;SDS011;47465;43.094;12.434;2022-09-13T05:25:23;7.47;;;2.90;;
61572;SDS011;47465;43.094;12.434;2022-09-13T05:27:49;6.32;;;2.90;;
61572;SDS011;47465;43.094;12.434;2022-09-13T05:30:15;4.70;;;2.60;;
61572;SDS011;47465;43.094;12.434;2022-09-13T05:32:42;5.78;;;2.78;;
61572;SDS011;47465;43.094;12.434;2022-09-13T05:35:08;5.85;;;3.10;;
61572;SDS011;47465;43.094;12.434;2022-09-13T05:37:34;4.25;;;2.70;;
61572;SDS011;47465;43.094;12.434;2022-09-13T05:40:00;5.68;;;2.90;;
61572;SDS011;47465;43.094;12.434;2022-09-13T05:42:26;4.55;;;2.97;;
61572;SDS011;47465;43.094;12.434;2022-09-13T05:44:52;5.93;;;3.28;;
61572;SDS011;47465;43.094;12.434;2022-09-13T05:47:20;5.57;;;3.35;;
61572;SDS011;47465;43.094;12.434;2022-09-13T05:49:47;3.97;;;2.97;;
61572;SDS011;47465;43.094;12.434;2022-09-13T05:52:13;7.82;;;3.53;;
61572;SDS011;47465;43.094;12.434;2022-09-13T05:54:39;6.28;;;3.55;;
61572;SDS011;47465;43.094;12.434;2022-09-13T05:57:05;5.72;;;2.97;;
61572;SDS011;47465;43.094;12.434;2022-09-13T05:59:31;6.30;;;3.13;;
61572;SDS011;47465;43.094;12.434;2022-09-13T06:01:56;7.65;;;3.17;;
61572;SDS011;47465;43.094;12.434;2022-09-13T06:04:22;5.88;;;2.38;;
61572;SDS011;47465;43.094;12.434;2022-09-13T06:06:50;5.10;;;2.60;;
61572;SDS011;47465;43.094;12.434;2022-09-13T06:09:15;5.60;;;2.40;;
61572;SDS011;47465;43.094;12.434;2022-09-13T06:11:42;6.40;;;2.50;;
61572;SDS011;47465;43.094;12.434;2022-09-13T06:14:08;6.43;;;2.30;;
61572;SDS011;47465;43.094;12.434;2022-09-13T06:16:34;5.38;;;2.90;;
61572;SDS011;47465;43.094;12.434;2022-09-13T06:19:01;5.18;;;2.63;;
61572;SDS011;47465;43.094;12.434;2022-09-13T06:21:27;7.03;;;2.67;;
61572;SDS011;47465;43.094;12.434;2022-09-13T06:23:54;6.80;;;2.72;;
61572;SDS011;47465;43.094;12.434;2022-09-13T06:26:21;4.47;;;2.80;;
61572;SDS011;47465;43.094;12.434;2022-09-13T06:28:48;5.22;;;2.60;;
61572;SDS011;47465;43.094;12.434;2022-09-13T06:31:16;4.43;;;2.72;;
61572;SDS011;47465;43.094;12.434;2022-09-13T06:33:43;5.25;;;2.67;;
61572;SDS011;47465;43.094;12.434;2022-09-13T06:36:10;4.82;;;2.60;;
61572;SDS011;47465;43.094;12.434;2022-09-13T06:38:38;5.05;;;2.40;;
61572;SDS011;47465;43.094;12.434;2022-09-13T06:41:06;3.88;;;2.60;;
61572;SDS011;47465;43.094;12.434;2022-09-13T06:43:34;5.60;;;2.97;;
61572;SDS011;47465;43.094;12.434;2022-09-13T06:46:00;4.70;;;2.40;;
61572;SDS011;47465;43.094;12.434;2022-09-13T06:48:29;4.20;;;2.35;;
61572;SDS011;47465;43.094;12.434;2022-09-13T06:50:56;4.35;;;2.50;;
61572;SDS011;47465;43.094;12.434;2022-09-13T06:53:23;4.45;;;2.20;;
61572;SDS011;47465;43.094;12.434;2022-09-13T06:55:48;4.85;;;2.60;;
61572;SDS011;47465;43.094;12.434;2022-09-13T06:58:25;5.85;;;2.90;;
61572;SDS011;47465;43.094;12.434;2022-09-13T07:00:52;5.53;;;3.10;;
61572;SDS011;47465;43.094;12.434;2022-09-13T07:03:18;5.47;;;3.13;;
61572;SDS011;47465;43.094;12.434;2022-09-13T07:05:44;4.95;;;3.40;;
61572;SDS011;47465;43.094;12.434;2022-09-13T07:08:09;5.55;;;3.05;;
61572;SDS011;47465;43.094;12.434;2022-09-13T07:10:36;4.05;;;2.63;;
61572;SDS011;47465;43.094;12.434;2022-09-13T07:13:01;5.75;;;2.20;;
61572;SDS011;47465;43.094;12.434;2022-09-13T07:15:29;9.13;;;2.63;;
61572;SDS011;47465;43.094;12.434;2022-09-13T07:17:54;5.55;;;2.70;;
61572;SDS011;47465;43.094;12.434;2022-09-13T07:20:20;4.05;;;2.30;;
61572;SDS011;47465;43.094;12.434;2022-09-13T07:22:47;4.57;;;2.47;;
61572;SDS011;47465;43.094;12.434;2022-09-13T07:25:13;4.78;;;2.17;;
61572;SDS011;47465;43.094;12.434;2022-09-13T07:27:40;7.68;;;2.50;;
61572;SDS011;47465;43.094;12.434;2022-09-13T07:30:06;4.50;;;2.60;;
61572;SDS011;47465;43.094;12.434;2022-09-13T07:32:34;4.95;;;2.50;;
61572;SDS011;47465;43.094;12.434;2022-09-13T07:35:00;5.13;;;2.58;;
61572;SDS011;47465;43.094;12.434;2022-09-13T07:37:26;6.25;;;2.90;;
61572;SDS011;47465;43.094;12.434;2022-09-13T07:39:52;7.10;;;3.00;;
61572;SDS011;47465;43.094;12.434;2022-09-13T07:42:18;5.38;;;3.38;;
61572;SDS011;47465;43.094;12.434;2022-09-13T07:44:44;5.95;;;3.35;;
61572;SDS011;47465;43.094;12.434;2022-09-13T07:47:10;6.03;;;2.70;;
61572;SDS011;47465;43.094;12.434;2022-09-13T07:49:38;5.82;;;2.88;;
61572;SDS011;47465;43.094;12.434;2022-09-13T07:52:04;6.35;;;3.17;;
61572;SDS011;47465;43.094;12.434;2022-09-13T07:54:30;4.60;;;2.90;;
61572;SDS011;47465;43.094;12.434;2022-09-13T07:56:56;5.00;;;2.75;;
61572;SDS011;47465;43.094;12.434;2022-09-13T07:59:22;5.22;;;2.90;;
61572;SDS011;47465;43.094;12.434;2022-09-13T08:01:49;4.88;;;2.53;;
61572;SDS011;47465;43.094;12.434;2022-09-13T08:04:16;6.03;;;2.80;;
61572;SDS011;47465;43.094;12.434;2022-09-13T08:06:45;4.95;;;2.83;;
61572;SDS011;47465;43.094;12.434;2022-09-13T08:09:11;6.40;;;3.10;;
61572;SDS011;47465;43.094;12.434;2022-09-13T08:11:38;4.32;;;3.00;;
61572;SDS011;47465;43.094;12.434;2022-09-13T08:14:06;4.82;;;3.13;;
61572;SDS011;47465;43.094;12.434;2022-09-13T08:16:33;7.05;;;2.70;;
61572;SDS011;47465;43.094;12.434;2022-09-13T08:19:00;3.90;;;2.78;;
61572;SDS011;47465;43.094;12.434;2022-09-13T08:21:30;5.88;;;3.10;;
61572;SDS011;47465;43.094;12.434;2022-09-13T08:23:59;7.15;;;2.88;;
61572;SDS011;47465;43.094;12.434;2022-09-13T08:26:26;5.65;;;2.90;;
61572;SDS011;47465;43.094;12.434;2022-09-13T08:28:54;6.18;;;3.10;;
61572;SDS011;47465;43.094;12.434;2022-09-13T08:31:21;5.05;;;2.88;;
61572;SDS011;47465;43.094;12.434;2022-09-13T08:33:47;6.05;;;3.08;;
61572;SDS011;47465;43.094;12.434;2022-09-13T08:36:13;4.50;;;3.03;;
61572;SDS011;47465;43.094;12.434;2022-09-13T08:38:43;7.95;;;3.00;;
61572;SDS011;47465;43.094;12.434;2022-09-13T08:41:18;5.00;;;3.00;;
61572;SDS011;47465;43.094;12.434;2022-09-13T08:43:58;5.80;;;3.13;;
61572;SDS011;47465;43.094;12.434;2022-09-13T08:46:31;6.10;;;3.15;;
61572;SDS011;47465;43.094;12.434;2022-09-13T08:48:59;6.68;;;3.22;;
61572;SDS011;47465;43.094;12.434;2022-09-13T08:51:30;6.30;;;3.00;;
61572;SDS011;47465;43.094;12.434;2022-09-13T08:54:00;5.25;;;3.15;;
61572;SDS011;47465;43.094;12.434;2022-09-13T08:56:31;5.70;;;2.95;;
61572;SDS011;47465;43.094;12.434;2022-09-13T08:59:05;4.90;;;2.83;;
61572;SDS011;47465;43.094;12.434;2022-09-13T09:01:48;7.07;;;3.08;;
61572;SDS011;47465;43.094;12.434;2022-09-13T09:04:28;8.95;;;2.90;;
61572;SDS011;47465;43.094;12.434;2022-09-13T09:07:02;8.55;;;2.83;;
61572;SDS011;47465;43.094;12.434;2022-09-13T09:09:31;6.13;;;2.80;;
61572;SDS011;47465;43.094;12.434;2022-09-13T09:12:05;8.40;;;3.28;;
61572;SDS011;47465;43.094;12.434;2022-09-13T09:14:40;6.45;;;3.17;;
61572;SDS011;47465;43.094;12.434;2022-09-13T09:17:12;7.50;;;3.10;;
61572;SDS011;47465;43.094;12.434;2022-09-13T09:19:42;5.97;;;3.05;;
61572;SDS011;47465;43.094;12.434;2022-09-13T09:22:14;6.30;;;3.10;;
61572;SDS011;47465;43.094;12.434;2022-09-13T09:24:43;6.80;;;2.90;;
61572;SDS011;47465;43.094;12.434;2022-09-13T09:27:13;7.18;;;3.17;;
61572;SDS011;47465;43.094;12.434;2022-09-13T09:29:41;7.25;;;3.13;;
61572;SDS011;47465;43.094;12.434;2022-09-13T09:32:11;8.50;;;3.60;;
61572;SDS011;47465;43.094;12.434;2022-09-13T09:34:48;7.97;;;3.50;;
61572;SDS011;47465;43.094;12.434;2022-09-13T09:37:25;8.10;;;3.83;;
61572;SDS011;47465;43.094;12.434;2022-09-13T09:39:54;5.80;;;3.28;;
61572;SDS011;47465;43.094;12.434;2022-09-13T09:42:27;9.95;;;3.70;;
61572;SDS011;47465;43.094;12.434;2022-09-13T09:44:59;5.22;;;3.42;;
61572;SDS011;47465;43.094;12.434;2022-09-13T09:47:30;9.43;;;3.50;;
61572;SDS011;47465;43.094;12.434;2022-09-13T09:50:06;9.68;;;3.50;;
61572;SDS011;47465;43.094;12.434;2022-09-13T09:52:37;6.93;;;3.10;;
61572;SDS011;47465;43.094;12.434;2022-09-13T09:55:10;6.22;;;3.40;;
61572;SDS011;47465;43.094;12.434;2022-09-13T09:57:51;6.70;;;2.88;;
61572;SDS011;47465;43.094;12.434;2022-09-13T10:00:19;7.15;;;3.10;;
61572;SDS011;47465;43.094;12.434;2022-09-13T10:02:47;5.45;;;2.95;;
61572;SDS011;47465;43.094;12.434;2022-09-13T10:05:19;6.13;;;2.90;;
61572;SDS011;47465;43.094;12.434;2022-09-13T10:07:52;9.82;;;3.13;;
61572;SDS011;47465;43.094;12.434;2022-09-13T10:10:23;7.63;;;3.33;;
61572;SDS011;47465;43.094;12.434;2022-09-13T10:12:54;6.32;;;2.83;;
61572;SDS011;47465;43.094;12.434;2022-09-13T10:15:22;4.88;;;3.00;;
61572;SDS011;47465;43.094;12.434;2022-09-13T10:18:00;6.60;;;3.05;;
61572;SDS011;47465;43.094;12.434;2022-09-13T10:20:36;5.97;;;3.00;;
61572;SDS011;47465;43.094;12.434;2022-09-13T10:28:28;7.28;;;3.75;;
61572;SDS011;47465;43.094;12.434;2022-09-13T10:30:55;6.50;;;3.22;;
61572;SDS011;47465;43.094;12.434;2022-09-13T10:33:26;4.82;;;3.10;;
61572;SDS011;47465;43.094;12.434;2022-09-13T10:35:55;5.55;;;3.35;;
61572;SDS011;47465;43.094;12.434;2022-09-13T10:38:26;8.13;;;3.17;;
61572;SDS011;47465;43.094;12.434;2022-09-13T10:40:54;6.68;;;2.97;;
61572;SDS011;47465;43.094;12.434;2022-09-13T10:43:22;7.28;;;3.20;;
61572;SDS011;47465;43.094;12.434;2022-09-13T10:45:53;6.70;;;3.30;;
61572;SDS011;47465;43.094;12.434;2022-09-13T10:48:19;4.85;;;2.90;;
61572;SDS011;47465;43.094;12.434;2022-09-13T10:53:34;9.32;;;3.15;;
61572;SDS011;47465;43.094;12.434;2022-09-13T10:56:02;6.47;;;2.60;;
61572;SDS011;47465;43.094;12.434;2022-09-13T10:58:29;6.85;;;2.42;;
61572;SDS011;47465;43.094;12.434;2022-09-13T11:04:07;5.93;;;2.83;;
61572;SDS011;47465;43.094;12.434;2022-09-13T11:06:57;6.43;;;2.88;;
61572;SDS011;47465;43.094;12.434;2022-09-13T11:09:32;6.53;;;3.10;;
61572;SDS011;47465;43.094;12.434;2022-09-13T11:12:08;7.70;;;3.20;;
61572;SDS011;47465;43.094;12.434;2022-09-13T11:14:46;4.32;;;2.70;;
61572;SDS011;47465;43.094;12.434;2022-09-13T11:17:24;6.75;;;2.75;;
61572;SDS011;47465;43.094;12.434;2022-09-13T11:20:13;6.57;;;2.80;;
61572;SDS011;47465;43.094;12.434;2022-09-13T11:22:50;4.93;;;2.50;;
61572;SDS011;47465;43.094;12.434;2022-09-13T11:25:35;5.50;;;2.60;;
61572;SDS011;47465;43.094;12.434;2022-09-13T11:28:12;6.50;;;2.65;;
61572;SDS011;47465;43.094;12.434;2022-09-13T11:30:47;4.78;;;2.47;;
61572;SDS011;47465;43.094;12.434;2022-09-13T11:33:29;4.70;;;2.35;;
61572;SDS011;47465;43.094;12.434;2022-09-13T11:36:13;6.03;;;3.00;;
61572;SDS011;47465;43.094;12.434;2022-09-13T11:39:01;6.55;;;2.83;;
61572;SDS011;47465;43.094;12.434;2022-09-13T11:41:35;5.68;;;2.70;;
61572;SDS011;47465;43.094;12.434;2022-09-13T11:47:25;5.45;;;2.63;;
61572;SDS011;47465;43.094;12.434;2022-09-13T11:50:04;7.22;;;2.97;;
61572;SDS011;47465;43.094;12.434;2022-09-13T11:52:51;4.05;;;2.67;;
61572;SDS011;47465;43.094;12.434;2022-09-13T11:55:28;7.07;;;2.80;;
61572;SDS011;47465;43.094;12.434;2022-09-13T11:57:59;7.88;;;3.10;;
61572;SDS011;47465;43.094;12.434;2022-09-13T12:00:29;5.63;;;2.92;;
61572;SDS011;47465;43.094;12.434;2022-09-13T12:03:02;5.93;;;2.95;;
61572;SDS011;47465;43.094;12.434;2022-09-13T12:05:38;5.40;;;2.80;;
61572;SDS011;47465;43.094;12.434;2022-09-13T12:08:11;6.20;;;2.75;;
61572;SDS011;47465;43.094;12.434;2022-09-13T12:10:42;5.22;;;2.90;;
61572;SDS011;47465;43.094;12.434;2022-09-13T12:13:14;5.15;;;2.50;;
61572;SDS011;47465;43.094;12.434;2022-09-13T12:15:45;6.43;;;2.83;;
61572;SDS011;47465;43.094;12.434;2022-09-13T12:18:13;5.10;;;2.80;;
61572;SDS011;47465;43.094;12.434;2022-09-13T12:20:46;4.55;;;2.60;;
61572;SDS011;47465;43.094;12.434;2022-09-13T12:23:16;5.25;;;2.90;;
61572;SDS011;47465;43.094;12.434;2022-09-13T12:25:48;5.63;;;2.65;;
61572;SDS011;47465;43.094;12.434;2022-09-13T12:28:21;5.10;;;2.42;;
61572;SDS011;47465;43.094;12.434;2022-09-13T12:30:51;3.92;;;2.58;;
61572;SDS011;47465;43.094;12.434;2022-09-13T12:33:20;5.05;;;2.50;;
61572;SDS011;47465;43.094;12.434;2022-09-13T12:35:49;7.00;;;2.30;;
61572;SDS011;47465;43.094;12.434;2022-09-13T12:38:29;5.18;;;2.47;;
61572;SDS011;47465;43.094;12.434;2022-09-13T12:41:15;5.18;;;2.60;;
61572;SDS011;47465;43.094;12.434;2022-09-13T12:43:55;6.03;;;2.50;;
61572;SDS011;47465;43.094;12.434;2022-09-13T12:47:02;5.55;;;2.85;;
61572;SDS011;47465;43.094;12.434;2022-09-13T12:49:55;5.15;;;2.30;;
61572;SDS011;47465;43.094;12.434;2022-09-13T12:52:43;3.80;;;2.20;;
61572;SDS011;47465;43.094;12.434;2022-09-13T12:58:31;4.00;;;2.40;;
61572;SDS011;47465;43.094;12.434;2022-09-13T13:01:09;5.15;;;2.40;;
61572;SDS011;47465;43.094;12.434;2022-09-13T13:03:44;6.40;;;2.08;;
61572;SDS011;47465;43.094;12.434;2022-09-13T13:09:02;6.43;;;2.28;;
61572;SDS011;47465;43.094;12.434;2022-09-13T13:11:39;3.90;;;2.33;;
61572;SDS011;47465;43.094;12.434;2022-09-13T13:14:21;5.43;;;2.08;;
61572;SDS011;47465;43.094;12.434;2022-09-13T13:16:52;3.00;;;2.00;;
61572;SDS011;47465;43.094;12.434;2022-09-13T13:19:26;3.58;;;2.20;;
61572;SDS011;47465;43.094;12.434;2022-09-13T13:25:30;5.93;;;2.33;;
61572;SDS011;47465;43.094;12.434;2022-09-13T13:28:02;4.47;;;2.10;;
61572;SDS011;47465;43.094;12.434;2022-09-13T13:30:38;4.88;;;2.20;;
61572;SDS011;47465;43.094;12.434;2022-09-13T13:33:16;2.63;;;2.10;;
61572;SDS011;47465;43.094;12.434;2022-09-13T13:35:44;4.75;;;2.38;;
61572;SDS011;47465;43.094;12.434;2022-09-13T13:38:32;5.50;;;2.20;;
61572;SDS011;47465;43.094;12.434;2022-09-13T13:41:07;6.88;;;2.15;;
61572;SDS011;47465;43.094;12.434;2022-09-13T13:50:18;5.32;;;2.30;;
61572;SDS011;47465;43.094;12.434;2022-09-13T13:52:51;6.45;;;2.53;;
61572;SDS011;47465;43.094;12.434;2022-09-13T13:55:30;4.03;;;2.10;;
61572;SDS011;47465;43.094;12.434;2022-09-13T14:00:57;5.13;;;2.35;;
61572;SDS011;47465;43.094;12.434;2022-09-13T14:03:27;6.57;;;2.53;;
61572;SDS011;47465;43.094;12.434;2022-09-13T14:06:07;5.25;;;2.13;;
61572;SDS011;47465;43.094;12.434;2022-09-13T14:08:43;4.72;;;2.30;;
61572;SDS011;47465;43.094;12.434;2022-09-13T14:11:21;4.20;;;2.40;;
61572;SDS011;47465;43.094;12.434;2022-09-13T14:14:04;3.88;;;2.60;;
61572;SDS011;47465;43.094;12.434;2022-09-13T14:16:47;6.03;;;2.75;;
61572;SDS011;47465;43.094;12.434;2022-09-13T14:19:22;5.38;;;2.33;;
61572;SDS011;47465;43.094;12.434;2022-09-13T14:24:39;7.50;;;2.38;;
61572;SDS011;47465;43.094;12.434;2022-09-13T14:27:11;5.22;;;2.40;;
61572;SDS011;47465;43.094;12.434;2022-09-13T14:29:41;4.30;;;2.67;;
61572;SDS011;47465;43.094;12.434;2022-09-13T14:32:10;5.65;;;2.70;;
61572;SDS011;47465;43.094;12.434;2022-09-13T14:34:48;6.05;;;2.50;;
61572;SDS011;47465;43.094;12.434;2022-09-13T14:37:17;5.63;;;2.47;;
61572;SDS011;47465;43.094;12.434;2022-09-13T14:39:52;5.20;;;2.60;;
61572;SDS011;47465;43.094;12.434;2022-09-13T14:42:19;6.50;;;2.38;;
61572;SDS011;47465;43.094;12.434;2022-09-13T14:44:47;5.70;;;2.65;;
61572;SDS011;47465;43.094;12.434;2022-09-13T14:47:15;5.23;;;2.30;;
61572;SDS011;47465;43.094;12.434;2022-09-13T14:49:48;5.53;;;2.30;;
61572;SDS011;47465;43.094;12.434;2022-09-13T14:52:19;4.80;;;2.40;;
61572;SDS011;47465;43.094;12.434;2022-09-13T14:54:51;6.65;;;2.72;;
61572;SDS011;47465;43.094;12.434;2022-09-13T14:57:23;6.00;;;2.70;;
61572;SDS011;47465;43.094;12.434;2022-09-13T14:59:54;5.40;;;2.72;;
61572;SDS011;47465;43.094;12.434;2022-09-13T15:02:23;4.55;;;2.65;;
61572;SDS011;47465;43.094;12.434;2022-09-13T15:04:51;5.35;;;2.50;;
61572;SDS011;47465;43.094;12.434;2022-09-13T15:07:20;5.30;;;2.60;;
61572;SDS011;47465;43.094;12.434;2022-09-13T15:09:54;5.97;;;2.80;;
61572;SDS011;47465;43.094;12.434;2022-09-13T15:12:21;5.15;;;2.30;;
61572;SDS011;47465;43.094;12.434;2022-09-13T15:17:56;6.40;;;3.30;;
61572;SDS011;47465;43.094;12.434;2022-09-13T15:20:23;4.53;;;2.80;;
61572;SDS011;47465;43.094;12.434;2022-09-13T15:22:51;5.13;;;2.60;;
61572;SDS011;47465;43.094;12.434;2022-09-13T15:25:19;4.30;;;2.60;;
61572;SDS011;47465;43.094;12.434;2022-09-13T15:27:48;4.30;;;2.70;;
61572;SDS011;47465;43.094;12.434;2022-09-13T15:30:22;7.07;;;2.83;;
61572;SDS011;47465;43.094;12.434;2022-09-13T15:33:03;5.47;;;2.65;;
61572;SDS011;47465;43.094;12.434;2022-09-13T15:35:43;6.38;;;2.78;;
61572;SDS011;47465;43.094;12.434;2022-09-13T15:38:14;7.30;;;2.88;;
61572;SDS011;47465;43.094;12.434;2022-09-13T15:40:44;7.70;;;2.88;;
61572;SDS011;47465;43.094;12.434;2022-09-13T15:43:11;4.85;;;2.95;;
61572;SDS011;47465;43.094;12.434;2022-09-13T15:45:37;5.18;;;2.85;;
61572;SDS011;47465;43.094;12.434;2022-09-13T15:48:04;6.28;;;2.50;;